Aérodrome :







RETROUVEZ-NOUS SUR...

 
LOGIN :

S'inscrire | Disclaimer

   EN    FR    IT 

 









Légende :    VFR   VFR Marginal   IFR   IFR Intensif   IFR Très Intensif
Visi : 
Plafond : 
>= 8 km
>= 3000ft
5 à 8 km
1000 à 3000 ft
1500m à 5 km
500 à 1000 ft
800 à 1500m
200 à 500 ft
< 800m
< 200 ft
Symboles :   Orages  Brouillard  Fortes neiges  Fortes précipitations  Vent > 20 kt







- Altitude de l'aérodrome : 68 ft
- Code IATA : YFC


CYFC - Fredericton

DERNIER METAR :
  • 202311Z AUTO VRB02KT 9SM -RA FEW035 OVC085 18/16 A2964 RMK SLP038 DENSITY ALT 700FT

METARs EXPIRÉS :
  • 202220Z AUTO 13002KT 9SM BKN100 18/15 A2965 RMK SLP043 DENSITY ALT 700FT
  • 202200Z AUTO 16003KT 9SM -RA SCT100 BKN120 18/16 A2966 RMK SLP045 DENSITY ALT 600FT
  • 202125Z AUTO 18005KT 9SM -RA FEW035 OVC099 18/16 A2967 RMK SLP050 DENSITY ALT 600FT
  • 202117Z AUTO 19004KT 9SM OVC100 18/16 A2968 RMK SLP051 DENSITY ALT 600FT
  • 202100Z AUTO 20004KT 9SM -RA FEW065 OVC099 18/16 A2969 RMK SLP054 DENSITY ALT 600FT

TAF TAF CYFC
Valide du 21 à 00h jusqu'au 21 à 12h UTC


202338Z 2100/2112 VRB03KT P6SM -RA OVC025
TEMPO 2100/2101 5SM -RA BR OVC020
FM210100 VRB03KT P6SM -RA OVC012
TEMPO 2101/2104 2SM RA BR OVC006
FM210400 07008KT 1SM RA BR OVC003
TEMPO 2104/2112 3SM RA BR OVC006
PROB30 2104/2112 3/4SM +TSRA BR BKN010CB RMK FCST BASED ON AUTO OBS. NXT FCST BY 210600Z
FIR CZQM / Amérique du Nord



MET'MAP, la Météo Aéronautique d'un coup d'oeil ! - Copyright ORBIFLY Décembre 2007 - Disclaimer

ORBIFLY MET'MAP TEAM :

Programmation & Développement : Alexandra Zaïnal
Conception & Développement : Baudouin d'Aumeries
Co-Programmation & Développement : Marc-Olivier Méhu
Soutien technique & logistique : Manuel Goepfert

Contact : metmap@orbifly.com




SOURCES & CREDITS :

   NOAA